Time;durP1;ratioP1;P1;durP2;ratioP2;P2;SDS_P1;SDS_P2;PMS_P1;PMS_P2;Temp;Humidity;BMP_temperature;BMP_pressure;BME280_temperature;BME280_humidity;BME280_pressure;Samples;Min_cycle;Max_cycle;Signal;HPM_P1;HPM_P2
2023/06/15 00:00:48;;;;;;;6.53;2.20;;;;;;;14.06;100.00;102050.66;5092275;28;20164;-73
2023/06/15 00:03:13;;;;;;;4.32;2.10;;;;;;;14.03;100.00;102042.91;5092499;28;20032;-73
2023/06/15 00:05:39;;;;;;;3.05;2.22;;;;;;;14.01;100.00;102050.19;5091450;28;20028;-74
2023/06/15 00:08:05;;;;;;;2.75;2.13;;;;;;;13.98;100.00;102049.63;5092933;28;20440;-72
2023/06/15 00:10:30;;;;;;;2.70;2.20;;;;;;;13.94;100.00;102049.00;5092844;28;20055;-73
2023/06/15 00:12:56;;;;;;;4.70;2.20;;;;;;;13.92;100.00;102048.31;5091866;28;20063;-73
2023/06/15 00:15:22;;;;;;;2.72;2.35;;;;;;;13.90;100.00;102044.94;5073923;28;20043;-72
2023/06/15 00:17:48;;;;;;;3.63;2.40;;;;;;;13.90;100.00;102042.25;5092185;28;20111;-71
2023/06/15 00:20:14;;;;;;;2.65;2.03;;;;;;;13.92;100.00;102037.59;5073535;28;20028;-72
2023/06/15 00:22:41;;;;;;;4.13;2.85;;;;;;;13.90;100.00;102040.41;5092013;28;20107;-73
2023/06/15 00:25:08;;;;;;;4.90;2.25;;;;;;;13.89;100.00;102046.72;5091958;28;20024;-73
2023/06/15 00:27:37;;;;;;;4.47;2.70;;;;;;;13.89;100.00;102051.25;5091996;28;20097;-71
2023/06/15 00:30:03;;;;;;;3.05;2.58;;;;;;;13.87;100.00;102048.72;5091912;28;20054;-72
2023/06/15 00:32:29;;;;;;;3.65;2.45;;;;;;;13.88;100.00;102057.56;5091884;28;20119;-72
2023/06/15 00:34:54;;;;;;;4.35;2.50;;;;;;;13.86;100.00;102051.50;5091800;28;20165;-72
2023/06/15 00:37:19;;;;;;;5.75;2.75;;;;;;;13.85;100.00;102053.34;5092031;28;20499;-71
2023/06/15 00:39:45;;;;;;;4.05;2.90;;;;;;;13.85;100.00;102061.38;5091644;28;20024;-71
2023/06/15 00:42:10;;;;;;;3.17;2.65;;;;;;;13.86;100.00;102056.88;5091268;28;20036;-71
2023/06/15 00:44:36;;;;;;;4.60;2.60;;;;;;;13.83;100.00;102046.44;5091279;28;20475;-73
2023/06/15 00:47:02;;;;;;;7.93;2.90;;;;;;;13.81;100.00;102046.56;5091721;28;20059;-72
2023/06/15 00:49:28;;;;;;;5.63;2.70;;;;;;;13.81;100.00;102053.72;5073109;28;20032;-72
2023/06/15 00:51:54;;;;;;;4.90;2.78;;;;;;;13.79;100.00;102053.00;5091206;28;20071;-72
2023/06/15 00:54:23;;;;;;;4.45;2.60;;;;;;;13.77;100.00;102060.31;5091290;28;20044;-72
2023/06/15 00:56:50;;;;;;;4.03;2.55;;;;;;;13.74;100.00;102053.41;5091172;28;20519;-72
2023/06/15 00:59:16;;;;;;;7.10;3.28;;;;;;;13.74;100.00;102056.91;5091622;28;20032;-73
2023/06/15 01:01:41;;;;;;;5.20;3.13;;;;;;;13.73;100.00;102057.91;5091215;28;20032;-73
2023/06/15 01:04:07;;;;;;;6.15;2.70;;;;;;;13.73;100.00;102057.03;5090973;28;20133;-72
2023/06/15 01:06:41;;;;;;;4.05;3.20;;;;;;;13.71;100.00;102061.69;5090913;28;20432;-72
2023/06/15 01:09:09;;;;;;;6.78;2.67;;;;;;;13.66;100.00;102059.41;5090919;28;20048;-72
2023/06/15 01:11:35;;;;;;;5.72;2.90;;;;;;;13.62;100.00;102060.63;5090870;28;20032;-73
2023/06/15 01:14:03;;;;;;;3.30;2.80;;;;;;;13.56;100.00;102056.66;5072634;28;20419;-73
2023/06/15 01:16:40;;;;;;;4.18;3.10;;;;;;;13.53;100.00;102061.41;5072443;28;20070;-72
2023/06/15 01:19:13;;;;;;;4.07;3.25;;;;;;;13.49;100.00;102066.16;5091827;28;20500;-76
2023/06/15 01:21:39;;;;;;;3.40;3.03;;;;;;;13.48;100.00;102060.94;5074129;28;20031;-76
2023/06/15 01:24:18;;;;;;;4.18;3.40;;;;;;;13.45;100.00;102063.88;5092017;28;20036;-77
2023/06/15 01:26:46;;;;;;;4.60;3.33;;;;;;;13.42;100.00;102069.47;5094586;28;20050;-76
2023/06/15 01:29:15;;;;;;;5.25;3.80;;;;;;;13.40;100.00;102064.25;5075859;28;20028;-75
2023/06/15 01:31:41;;;;;;;5.78;3.15;;;;;;;13.39;100.00;102065.22;5094353;28;20074;-77
2023/06/15 01:34:06;;;;;;;5.85;3.00;;;;;;;13.35;100.00;102061.97;5093292;28;20032;-74
2023/06/15 01:36:31;;;;;;;7.43;3.65;;;;;;;13.33;100.00;102066.56;5075866;28;20116;-75
2023/06/15 01:38:59;;;;;;;3.78;3.17;;;;;;;13.31;100.00;102067.66;5093701;28;20119;-75
2023/06/15 01:41:26;;;;;;;4.03;3.38;;;;;;;13.28;100.00;102065.25;5074225;28;20411;-76
2023/06/15 01:43:53;;;;;;;4.45;3.33;;;;;;;13.23;100.00;102063.81;5091735;28;20077;-76
2023/06/15 01:46:22;;;;;;;3.95;3.28;;;;;;;13.23;100.00;102068.31;5091815;28;20483;-75
2023/06/15 01:48:47;;;;;;;4.07;3.67;;;;;;;13.20;100.00;102063.22;5091781;28;20028;-76
2023/06/15 01:51:14;;;;;;;4.93;3.33;;;;;;;13.16;100.00;102059.94;5092664;28;20287;-76
2023/06/15 01:53:39;;;;;;;5.25;3.42;;;;;;;13.14;100.00;102067.22;5091902;28;20066;-75
2023/06/15 01:56:05;;;;;;;4.22;3.00;;;;;;;13.11;100.00;102061.31;5091745;28;20036;-76
2023/06/15 01:58:30;;;;;;;5.05;3.60;;;;;;;13.09;100.00;102069.41;5091804;28;20043;-75
2023/06/15 02:00:55;;;;;;;3.60;3.28;;;;;;;13.06;100.00;102072.34;5091694;28;20028;-76
2023/06/15 02:03:21;;;;;;;6.55;3.60;;;;;;;13.02;100.00;102069.09;5092020;28;20036;-76
2023/06/15 02:05:46;;;;;;;5.28;3.70;;;;;;;13.01;100.00;102070.06;5091717;28;20032;-76
2023/06/15 02:08:12;;;;;;;8.25;4.43;;;;;;;13.02;100.00;102065.56;5092218;28;20148;-76
2023/06/15 02:10:38;;;;;;;6.05;3.95;;;;;;;13.00;100.00;102064.84;5092269;28;20380;-76
2023/06/15 02:13:08;;;;;;;5.53;3.70;;;;;;;12.98;100.00;102066.78;5091839;28;20028;-75
2023/06/15 02:15:33;;;;;;;12.75;4.07;;;;;;;12.98;100.00;102069.47;5091949;28;20107;-75
2023/06/15 02:18:01;;;;;;;6.40;3.47;;;;;;;12.97;100.00;102067.75;5091602;28;20101;-77
2023/06/15 02:20:28;;;;;;;6.13;4.13;;;;;;;12.94;100.00;102068.84;5091576;28;20032;-75
2023/06/15 02:22:56;;;;;;;5.28;3.65;;;;;;;12.94;100.00;102068.84;5073094;28;20032;-75
2023/06/15 02:25:22;;;;;;;4.85;3.97;;;;;;;12.91;100.00;102071.78;5091535;28;20425;-76
2023/06/15 02:27:47;;;;;;;4.05;3.38;;;;;;;12.90;100.00;102077.22;5092603;28;20035;-74
2023/06/15 02:30:13;;;;;;;6.57;3.95;;;;;;;12.87;100.00;102073.00;5095552;28;20071;-75
2023/06/15 02:32:39;;;;;;;7.40;3.95;;;;;;;12.88;100.00;102075.56;5095464;28;20077;-75
2023/06/15 02:35:14;;;;;;;5.70;3.58;;;;;;;12.84;100.00;102074.09;5095870;28;20024;-74
2023/06/15 02:37:40;;;;;;;4.13;3.40;;;;;;;12.82;100.00;102072.53;5096510;28;20138;-75
2023/06/15 02:40:08;;;;;;;4.53;3.40;;;;;;;12.79;100.00;102072.78;5077031;28;20521;-76
2023/06/15 02:42:33;;;;;;;5.55;3.90;;;;;;;12.79;100.00;102078.09;5095049;28;20110;-75
2023/06/15 02:45:00;;;;;;;4.50;3.70;;;;;;;12.77;100.00;102082.72;5095016;28;20486;-76
2023/06/15 02:47:26;;;;;;;6.15;4.45;;;;;;;12.75;100.00;102077.53;5095374;28;20076;-76
2023/06/15 02:49:53;;;;;;;5.97;4.65;;;;;;;12.74;100.00;102077.66;5076651;28;20209;-76
2023/06/15 02:52:18;;;;;;;6.43;4.55;;;;;;;12.73;100.00;102081.28;5076875;28;20032;-76
2023/06/15 02:54:43;;;;;;;4.40;4.00;;;;;;;12.69;100.00;102073.50;5094531;28;20062;-74
2023/06/15 02:57:09;;;;;;;5.88;4.13;;;;;;;12.72;100.00;102083.09;5094501;28;20124;-76
2023/06/15 02:59:35;;;;;;;10.57;4.57;;;;;;;12.70;100.00;102077.91;5076586;28;20065;-76
2023/06/15 03:02:04;;;;;;;6.70;4.63;;;;;;;12.69;100.00;102078.00;5094701;28;20115;-76
2023/06/15 03:04:30;;;;;;;8.35;4.45;;;;;;;12.67;100.00;102083.47;5095328;28;20463;-75
2023/06/15 03:06:57;;;;;;;5.57;4.28;;;;;;;12.66;100.00;102083.59;5094442;28;20040;-76
2023/06/15 03:09:25;;;;;;;6.53;4.30;;;;;;;12.64;100.00;102082.84;5094787;28;20125;-74
2023/06/15 03:11:51;;;;;;;5.80;4.75;;;;;;;12.63;100.00;102086.50;5094799;28;20473;-75
2023/06/15 03:14:20;;;;;;;6.20;4.13;;;;;;;12.60;100.00;102078.72;5094951;28;20038;-76
2023/06/15 03:16:47;;;;;;;6.00;4.32;;;;;;;12.60;100.00;102089.41;5078122;28;20040;-76
2023/06/15 03:19:15;;;;;;;6.60;4.25;;;;;;;12.59;100.00;102085.91;5094568;28;20038;-75
2023/06/15 03:21:41;;;;;;;5.32;4.55;;;;;;;12.59;100.00;102091.22;5094542;28;20521;-75
2023/06/15 03:24:08;;;;;;;6.90;4.55;;;;;;;12.59;100.00;102087.72;5094457;28;20035;-74
2023/06/15 03:26:35;;;;;;;5.65;4.30;;;;;;;12.58;100.00;102089.53;5095138;28;20036;-75
2023/06/15 03:29:02;;;;;;;4.72;4.20;;;;;;;12.58;100.00;102089.53;5094793;28;20422;-75
2023/06/15 03:31:28;;;;;;;6.95;4.90;;;;;;;12.58;100.00;102089.53;5094355;28;20168;-75
2023/06/15 03:33:55;;;;;;;9.15;5.10;;;;;;;12.60;100.00;102089.41;5094259;28;20059;-76
2023/06/15 03:36:24;;;;;;;5.57;4.70;;;;;;;12.60;100.00;102087.59;5094785;28;20170;-75
2023/06/15 03:38:50;;;;;;;6.60;4.82;;;;;;;12.61;100.00;102091.94;5094178;28;20028;-76
2023/06/15 03:41:15;;;;;;;5.45;4.15;;;;;;;12.62;100.00;102090.16;5094884;28;20032;-75
2023/06/15 03:43:40;;;;;;;8.10;4.60;;;;;;;12.64;100.00;102093.53;5095686;28;20123;-75
2023/06/15 03:46:06;;;;;;;6.47;4.30;;;;;;;12.64;100.00;102094.38;5094486;28;20035;-75
2023/06/15 03:48:31;;;;;;;6.28;4.90;;;;;;;12.66;100.00;102094.28;5094415;28;20119;-75
2023/06/15 03:50:56;;;;;;;6.25;4.70;;;;;;;12.68;100.00;102105.69;5093990;28;20046;-76
2023/06/15 03:53:23;;;;;;;7.20;4.80;;;;;;;12.69;100.00;102105.56;5094294;28;20427;-75
2023/06/15 03:55:51;;;;;;;5.65;4.47;;;;;;;12.70;100.00;102096.59;5093907;28;20460;-75
2023/06/15 03:58:17;;;;;;;10.65;4.70;;;;;;;12.72;100.00;102096.47;5093743;28;20417;-75
2023/06/15 04:00:43;;;;;;;9.45;5.20;;;;;;;12.74;100.00;102094.50;5075948;28;20028;-74
2023/06/15 04:03:09;;;;;;;5.70;4.93;;;;;;;12.80;100.00;102109.19;5093602;28;20036;-75
2023/06/15 04:05:34;;;;;;;8.30;4.78;;;;;;;12.82;100.00;102101.91;5093788;28;20437;-76
2023/06/15 04:08:01;;;;;;;9.73;5.25;;;;;;;12.85;100.00;102096.31;5093466;28;20028;-75
2023/06/15 04:10:27;;;;;;;9.35;6.13;;;;;;;12.90;100.00;102103.94;5075095;28;20389;-75
2023/06/15 04:12:52;;;;;;;9.23;5.47;;;;;;;12.95;100.00;102102.59;5093795;28;20036;-76
2023/06/15 04:15:18;;;;;;;10.38;5.70;;;;;;;12.96;100.00;102093.63;5075149;28;20413;-76
2023/06/15 04:17:43;;;;;;;8.68;5.97;;;;;;;13.01;100.00;102106.63;5075578;28;20043;-76
2023/06/15 04:20:10;;;;;;;7.40;5.18;;;;;;;13.03;100.00;102096.63;5093337;28;20039;-75
2023/06/15 04:22:35;;;;;;;10.15;5.45;;;;;;;13.05;100.00;102110.75;5093219;28;20055;-75
2023/06/15 04:25:01;;;;;;;9.73;5.63;;;;;;;13.08;100.00;102112.28;5093314;28;20364;-75
2023/06/15 04:27:27;;;;;;;9.18;5.65;;;;;;;13.13;100.00;102115.47;5093671;28;20156;-74
2023/06/15 04:29:53;;;;;;;9.90;5.93;;;;;;;13.15;100.00;102114.38;5093464;28;20039;-76
2023/06/15 04:32:19;;;;;;;9.88;6.45;;;;;;;13.20;100.00;102108.66;5093284;28;20055;-75
2023/06/15 04:34:47;;;;;;;9.73;6.18;;;;;;;13.26;100.00;102116.16;5093007;28;20395;-76
2023/06/15 04:37:13;;;;;;;7.70;5.85;;;;;;;13.30;100.00;102114.94;5075157;28;20028;-75
2023/06/15 04:39:38;;;;;;;9.63;5.63;;;;;;;13.38;100.00;102117.00;5074674;28;20460;-75
2023/06/15 04:42:04;;;;;;;8.50;5.15;;;;;;;13.43;100.00;102116.63;5092453;28;20032;-74
2023/06/15 04:44:29;;;;;;;10.93;5.40;;;;;;;13.48;100.00;102117.09;5093085;28;20032;-75
2023/06/15 04:46:55;;;;;;;9.55;5.32;;;;;;;13.53;100.00;102122.91;5093681;28;20020;-76
2023/06/15 04:49:21;;;;;;;10.23;5.50;;;;;;;13.61;100.00;102119.59;5093262;28;20464;-76
2023/06/15 04:51:48;;;;;;;9.50;4.72;;;;;;;13.67;100.00;102127.09;5092611;28;20039;-76
2023/06/15 04:54:13;;;;;;;8.02;5.05;;;;;;;13.71;100.00;102126.72;5093653;28;20043;-76
2023/06/15 04:56:39;;;;;;;13.00;8.82;;;;;;;13.81;100.00;102131.28;5093401;28;20024;-76
2023/06/15 04:59:04;;;;;;;10.80;7.20;;;;;;;13.86;100.00;102135.28;5093798;28;20456;-76
2023/06/15 05:01:30;;;;;;;7.97;5.80;;;;;;;13.92;100.00;102126.72;5093575;28;20046;-76
2023/06/15 05:03:55;;;;;;;9.45;6.03;;;;;;;14.00;100.00;102128.78;5093652;28;20039;-75
2023/06/15 05:06:20;;;;;;;10.43;5.30;;;;;;;14.08;100.00;102136.16;5093409;28;20460;-77
2023/06/15 05:08:46;;;;;;;6.65;5.10;;;;;;;14.15;100.00;102137.31;5093262;28;20454;-76
2023/06/15 05:11:15;;;;;;;6.65;4.90;;;;;;;14.24;100.00;102135.69;5093726;28;20035;-76
2023/06/15 05:13:40;;;;;;;7.32;5.30;;;;;;;14.29;100.00;102131.63;5093384;28;20039;-77
2023/06/15 05:16:06;;;;;;;12.40;5.72;;;;;;;14.38;100.00;102139.88;5075594;28;20032;-75
2023/06/15 05:18:31;;;;;;;10.40;4.65;;;;;;;14.48;100.00;102138.09;5093478;28;20406;-77
2023/06/15 05:20:57;;;;;;;7.57;4.15;;;;;;;14.58;100.00;102133.59;5093392;28;20379;-76
2023/06/15 05:23:22;;;;;;;5.30;4.60;;;;;;;14.69;100.00;102135.41;5092962;28;20047;-75
2023/06/15 05:25:48;;;;;;;7.18;4.88;;;;;;;14.79;100.00;102128.25;5093391;28;20388;-75
2023/06/15 05:28:14;;;;;;;9.57;6.07;;;;;;;14.88;100.00;102134.59;5093571;28;20357;-76
2023/06/15 05:30:39;;;;;;;9.60;5.45;;;;;;;14.96;100.00;102126.75;5093319;28;20031;-75
2023/06/15 05:33:04;;;;;;;8.20;5.55;;;;;;;15.08;100.00;102132.00;5093608;28;20039;-75
2023/06/15 05:35:30;;;;;;;9.57;5.47;;;;;;;15.19;100.00;102137.22;5093194;28;20131;-76
2023/06/15 05:37:56;;;;;;;5.90;5.05;;;;;;;15.32;100.00;102131.63;5093935;28;20040;-72
2023/06/15 05:40:21;;;;;;;9.68;5.05;;;;;;;15.47;100.00;102127.53;5093031;28;20118;-72
2023/06/15 05:42:46;;;;;;;11.10;4.97;;;;;;;15.64;100.00;102136.72;5092804;28;20032;-72
2023/06/15 05:45:12;;;;;;;10.20;5.20;;;;;;;15.81;100.00;102137.91;5092671;28;20028;-73
2023/06/15 05:47:37;;;;;;;13.35;6.03;;;;;;;15.99;100.00;102135.34;5075101;28;20086;-73
2023/06/15 05:50:03;;;;;;;10.40;5.10;;;;;;;16.16;100.00;102131.06;5092792;28;20122;-73
2023/06/15 05:52:28;;;;;;;10.88;5.55;;;;;;;16.37;100.00;102135.38;5093165;28;20032;-72
2023/06/15 05:54:53;;;;;;;6.25;4.80;;;;;;;16.55;100.00;102144.38;5092971;28;20038;-72
2023/06/15 05:57:19;;;;;;;13.30;8.88;;;;;;;16.77;100.00;102138.78;5092895;28;20035;-75
2023/06/15 05:59:46;;;;;;;7.47;4.80;;;;;;;16.97;100.00;102145.78;5093228;28;20464;-75
2023/06/15 06:02:12;;;;;;;8.38;5.00;;;;;;;17.18;100.00;102142.84;5094256;28;20040;-74
2023/06/15 06:04:37;;;;;;;7.80;4.70;;;;;;;17.40;100.00;102140.72;5097239;28;20118;-74
2023/06/15 06:07:05;;;;;;;7.68;4.45;;;;;;;17.60;100.00;102139.56;5096802;28;20092;-74
2023/06/15 06:09:32;;;;;;;11.07;5.07;;;;;;;17.79;100.00;102140.41;5096847;28;20063;-74
2023/06/15 06:11:58;;;;;;;14.25;4.78;;;;;;;17.97;100.00;102140.41;5096904;28;20028;-74
2023/06/15 06:14:25;;;;;;;8.07;4.40;;;;;;;18.18;100.00;102153.53;5097228;28;20082;-73
2023/06/15 06:16:50;;;;;;;8.88;4.43;;;;;;;18.37;100.00;102146.25;5096805;28;20147;-74
2023/06/15 06:19:16;;;;;;;11.75;5.00;;;;;;;18.55;100.00;102146.19;5096577;28;20468;-75
2023/06/15 06:21:41;;;;;;;12.48;5.05;;;;;;;18.68;100.00;102139.34;5096668;28;20044;-74
2023/06/15 06:24:07;;;;;;;9.52;4.35;;;;;;;18.76;100.00;102151.19;5078331;28;20028;-74
2023/06/15 06:26:36;;;;;;;11.30;4.68;;;;;;;18.90;100.00;102147.06;5096545;28;20407;-74
2023/06/15 06:29:01;;;;;;;6.80;4.95;;;;;;;18.99;100.00;102151.50;5096582;28;20042;-74
2023/06/15 06:31:26;;;;;;;10.35;4.75;;;;;;;19.03;100.00;102147.44;5096315;28;20032;-74
2023/06/15 06:33:52;;;;;;;10.20;4.63;;;;;;;19.11;100.00;102144.78;5096455;28;20040;-74
2023/06/15 06:36:17;;;;;;;12.43;4.60;;;;;;;19.27;100.00;102144.00;5096045;28;20096;-74
2023/06/15 06:38:42;;;;;;;8.18;4.65;;;;;;;19.40;100.00;102143.50;5095951;28;20040;-74
2023/06/15 06:41:09;;;;;;;12.23;3.90;;;;;;;19.60;100.00;102144.06;5096651;28;20107;-81
2023/06/15 06:43:35;;;;;;;7.93;4.30;;;;;;;19.84;100.00;102143.25;5096539;28;20109;-74
2023/06/15 06:46:01;;;;;;;6.88;4.82;;;;;;;19.93;100.00;102140.53;5095978;28;20135;-76
2023/06/15 06:48:27;;;;;;;11.82;4.72;;;;;;;19.98;100.00;102141.72;5077941;28;20036;-74
2023/06/15 06:50:52;;;;;;;7.93;4.60;;;;;;;20.10;100.00;102141.38;5096151;28;20043;-75
2023/06/15 06:53:18;;;;;;;8.15;4.20;;;;;;;20.32;100.00;102137.09;5096111;28;20032;-74
2023/06/15 06:55:44;;;;;;;12.60;4.78;;;;;;;20.53;100.00;102131.16;5096518;28;20024;-74
2023/06/15 06:58:11;;;;;;;11.63;4.60;;;;;;;20.76;100.00;102139.38;5096698;28;20032;-74
2023/06/15 07:00:36;;;;;;;13.80;4.97;;;;;;;20.95;100.00;102135.41;5095701;28;20085;-74
2023/06/15 07:03:02;;;;;;;6.05;4.35;;;;;;;21.08;100.00;102137.53;5095830;28;20028;-74
2023/06/15 07:05:27;;;;;;;10.57;4.22;;;;;;;21.24;100.00;102145.56;5096374;28;20048;-74
2023/06/15 07:07:52;;;;;;;7.18;4.15;;;;;;;21.43;100.00;102146.13;5095973;28;20460;-75
2023/06/15 07:10:18;;;;;;;6.93;4.78;;;;;;;21.66;100.00;102147.00;5095994;28;20095;-75
2023/06/15 07:12:43;;;;;;;10.50;4.80;;;;;;;21.81;100.00;102148.91;5095401;28;20048;-74
2023/06/15 07:15:09;;;;;;;13.70;4.85;;;;;;;21.81;100.00;102147.06;5095184;28;20032;-73
2023/06/15 07:17:34;;;;;;;11.43;4.50;;;;;;;21.88;100.00;102149.03;5095587;28;20499;-74
2023/06/15 07:20:00;;;;;;;8.52;4.80;;;;;;;21.88;100.00;102155.28;5077099;28;20097;-74
2023/06/15 07:22:25;;;;;;;12.23;4.70;;;;;;;21.86;100.00;102146.50;5095339;28;20527;-72
2023/06/15 07:24:51;;;;;;;10.10;4.47;;;;;;;21.88;100.00;102149.84;5094964;28;20115;-72
2023/06/15 07:27:18;;;;;;;8.82;4.97;;;;;;;21.89;100.00;102148.84;5094691;28;20091;-73
2023/06/15 07:29:44;;;;;;;5.93;4.30;;;;;;;21.97;100.00;102137.91;5076310;28;20392;-72
2023/06/15 07:32:09;;;;;;;8.20;4.57;;;;;;;22.17;100.00;102146.38;5076441;28;20122;-73
2023/06/15 07:34:35;;;;;;;9.63;4.20;;;;;;;22.40;100.00;102144.66;5094614;28;20388;-75
2023/06/15 07:37:00;;;;;;;10.02;4.47;;;;;;;22.62;100.00;102146.44;5076281;28;20048;-73
2023/06/15 07:39:26;;;;;;;10.60;4.60;;;;;;;22.80;100.00;102146.06;5076556;28;20321;-74
2023/06/15 07:41:51;;;;;;;11.52;4.30;;;;;;;22.92;100.00;102153.72;5094598;28;20028;-74
2023/06/15 07:44:17;;;;;;;15.20;4.30;;;;;;;22.97;100.00;102149.38;5094596;28;20544;-75
2023/06/15 07:46:42;;;;;;;6.80;4.03;;;;;;;23.10;100.00;102147.91;5094542;28;20024;-73
2023/06/15 07:49:08;;;;;;;13.07;4.45;;;;;;;23.28;99.33;102155.63;5094702;28;20028;-72
2023/06/15 07:51:34;;;;;;;5.43;3.70;;;;;;;23.43;98.37;102151.00;5093994;28;20111;-73
2023/06/15 07:53:59;;;;;;;8.05;3.65;;;;;;;23.71;100.00;102152.94;5094632;28;20089;-72
2023/06/15 07:56:25;;;;;;;9.57;3.80;;;;;;;23.71;83.94;102148.34;5077297;28;20032;-71
2023/06/15 07:58:51;;;;;;;9.40;3.83;;;;;;;23.76;86.17;102153.19;5076688;28;20040;-73
2023/06/15 08:01:17;;;;;;;6.75;3.80;;;;;;;23.79;87.12;102152.78;5076721;28;20032;-72
2023/06/15 08:03:42;;;;;;;13.77;3.95;;;;;;;24.02;89.12;102155.31;5075986;28;20116;-72
2023/06/15 08:06:08;;;;;;;8.65;3.92;;;;;;;24.05;85.52;102154.06;5075832;28;20032;-73
2023/06/15 08:08:33;;;;;;;9.23;4.63;;;;;;;24.16;83.36;102153.53;5094230;28;20032;-73
2023/06/15 08:11:00;;;;;;;6.50;3.63;;;;;;;24.27;85.08;102150.28;5076135;28;20048;-71
2023/06/15 08:13:25;;;;;;;6.07;3.75;;;;;;;24.50;87.41;102149.16;5093833;28;20028;-72
2023/06/15 08:15:51;;;;;;;7.47;3.97;;;;;;;24.61;88.12;102145.91;5093444;28;20100;-73
2023/06/15 08:18:16;;;;;;;7.00;4.32;;;;;;;24.74;75.78;102147.84;5093593;28;20440;-73
2023/06/15 08:20:42;;;;;;;5.88;3.03;;;;;;;24.76;60.67;102147.66;5093818;28;20406;-72
2023/06/15 08:23:07;;;;;;;8.57;3.30;;;;;;;25.00;64.67;102146.28;5093982;28;20046;-72
2023/06/15 08:25:34;;;;;;;9.55;3.20;;;;;;;25.24;65.83;102153.06;5075021;28;20028;-73
2023/06/15 08:28:01;;;;;;;6.93;3.08;;;;;;;25.36;58.87;102152.50;5093526;28;20038;-72
2023/06/15 08:30:26;;;;;;;8.95;3.60;;;;;;;25.37;58.54;102154.19;5094056;28;20108;-72
2023/06/15 08:32:51;;;;;;;9.13;3.33;;;;;;;25.33;58.17;102148.28;5093129;28;20421;-73
2023/06/15 08:35:17;;;;;;;5.75;2.70;;;;;;;25.17;54.35;102150.31;5093098;28;20028;-72
2023/06/15 08:37:42;;;;;;;6.35;2.92;;;;;;;25.19;53.12;102149.28;5093185;28;20107;-72
2023/06/15 08:40:08;;;;;;;12.57;2.83;;;;;;;25.26;51.17;102147.41;5093675;28;20360;-72
2023/06/15 08:42:34;;;;;;;7.00;2.67;;;;;;;25.52;55.10;102150.22;5093159;28;20024;-74
2023/06/15 08:45:03;;;;;;;7.82;2.75;;;;;;;25.77;53.14;102144.16;5092847;28;20383;-73
2023/06/15 08:47:30;;;;;;;6.32;2.50;;;;;;;25.94;53.28;102147.31;5093249;28;20114;-72
2023/06/15 08:49:56;;;;;;;7.65;3.10;;;;;;;26.19;50.50;102150.25;5092905;28;20105;-72
2023/06/15 08:52:23;;;;;;;5.53;2.83;;;;;;;26.49;46.46;102152.50;5092988;28;20485;-72
2023/06/15 08:54:52;;;;;;;7.18;2.83;;;;;;;26.62;47.16;102151.63;5092832;28;20472;-73
2023/06/15 08:57:17;;;;;;;7.75;3.00;;;;;;;27.05;51.29;102145.59;5093128;28;20031;-73
2023/06/15 08:59:43;;;;;;;7.28;3.10;;;;;;;27.51;49.25;102153.75;5092763;28;20024;-73
2023/06/15 09:02:20;;;;;;;6.95;3.25;;;;;;;27.98;42.79;102148.81;5092518;28;20436;-73
2023/06/15 09:04:46;;;;;;;3.67;2.63;;;;;;;28.45;43.01;102146.41;5092787;28;20020;-73
2023/06/15 09:07:12;;;;;;;4.53;2.75;;;;;;;28.60;40.11;102147.97;5092361;28;20416;-73
2023/06/15 09:09:38;;;;;;;5.80;2.83;;;;;;;28.72;39.19;102145.31;5092399;28;20445;-73
2023/06/15 09:12:06;;;;;;;6.05;2.95;;;;;;;28.85;40.30;102137.75;5092326;28;20082;-72
2023/06/15 09:14:40;;;;;;;7.38;2.67;;;;;;;29.13;40.31;102143.72;5092554;28;20148;-72
2023/06/15 09:17:12;;;;;;;5.88;3.00;;;;;;;28.91;39.65;102135.19;5074147;28;20036;-75
2023/06/15 09:19:38;;;;;;;8.98;2.90;;;;;;;28.65;39.19;102143.50;5092828;28;20028;-73
2023/06/15 09:22:07;;;;;;;8.32;3.08;;;;;;;28.77;41.18;102153.69;5092799;28;20476;-72
2023/06/15 09:24:39;;;;;;;7.35;3.13;;;;;;;28.82;37.68;102135.47;5074694;28;20040;-71
2023/06/15 09:27:17;;;;;;;6.60;2.50;;;;;;;29.05;37.81;102144.03;5092614;28;20020;-72
2023/06/15 09:30:17;;;;;;;7.05;3.15;;;;;;;29.04;36.37;102151.44;5092817;28;20032;-74
2023/06/15 09:32:43;;;;;;;8.47;3.20;;;;;;;28.63;38.06;102145.63;5038060;28;20456;-75
2023/06/15 09:35:08;;;;;;;7.93;3.17;;;;;;;28.79;40.17;102148.81;5092200;28;20051;-73
2023/06/15 09:37:34;;;;;;;9.52;3.00;;;;;;;29.15;44.00;102144.31;5074525;28;20444;-73
2023/06/15 09:40:04;;;;;;;5.53;3.38;;;;;;;29.31;39.26;102138.22;5092850;28;20020;-72
2023/06/15 09:42:29;;;;;;;6.90;2.95;;;;;;;29.50;37.30;102143.59;5074788;28;20031;-72
2023/06/15 09:45:03;;;;;;;9.38;3.42;;;;;;;29.58;38.39;102143.28;5092484;28;20028;-72
2023/06/15 09:47:30;;;;;;;7.60;3.70;;;;;;;29.58;38.81;102139.72;5092082;28;20020;-72
2023/06/15 09:49:55;;;;;;;8.43;3.42;;;;;;;29.82;37.58;102138.69;5092269;28;20096;-72
2023/06/15 09:52:21;;;;;;;6.85;2.83;;;;;;;30.01;38.20;102139.41;5091840;28;20068;-72
2023/06/15 09:54:48;;;;;;;7.68;3.10;;;;;;;30.34;39.43;102142.63;5091576;28;20111;-72
2023/06/15 09:57:18;;;;;;;5.00;2.78;;;;;;;30.71;36.67;102136.81;5091455;28;20017;-73
2023/06/15 09:59:44;;;;;;;6.18;2.80;;;;;;;30.43;36.88;102138.47;5091834;28;20494;-72
2023/06/15 10:02:11;;;;;;;5.93;2.95;;;;;;;30.57;37.99;102131.63;5091435;28;20052;-73
2023/06/15 10:04:40;;;;;;;5.63;3.00;;;;;;;30.77;34.71;102131.22;5091740;28;20119;-72
2023/06/15 10:07:11;;;;;;;8.52;3.17;;;;;;;29.91;36.01;102133.69;5091586;28;20118;-72
2023/06/15 10:09:47;;;;;;;9.35;3.15;;;;;;;28.80;37.59;102142.28;5091392;28;20044;-72
2023/06/15 10:12:16;;;;;;;8.93;3.13;;;;;;;27.82;39.61;102141.13;5091845;28;20035;-73
2023/06/15 10:15:01;;;;;;;8.77;2.90;;;;;;;28.50;40.50;102135.63;5091525;28;20112;-74
2023/06/15 10:17:33;;;;;;;8.25;3.20;;;;;;;29.58;37.53;102135.06;5091863;28;20051;-72
2023/06/15 10:20:08;;;;;;;5.97;3.10;;;;;;;30.24;36.75;102135.00;5091774;28;20078;-73
2023/06/15 10:22:56;;;;;;;5.57;3.65;;;;;;;30.97;33.83;102140.94;5091681;28;20067;-72
2023/06/15 10:25:22;;;;;;;10.02;2.90;;;;;;;31.14;32.31;102141.00;5091815;28;20039;-73
2023/06/15 10:27:48;;;;;;;12.63;3.08;;;;;;;31.80;34.23;102143.28;5091716;28;20054;-73
2023/06/15 10:30:20;;;;;;;5.20;2.90;;;;;;;32.61;31.27;102144.69;5091695;28;20500;-72
2023/06/15 10:32:45;;;;;;;6.25;2.75;;;;;;;32.56;31.98;102144.63;5091417;28;20132;-73
2023/06/15 10:35:26;;;;;;;5.15;3.13;;;;;;;32.62;33.38;102155.47;5092018;28;20127;-73
2023/06/15 10:38:26;;;;;;;10.32;3.10;;;;;;;32.56;32.95;102150.97;5073201;28;20110;-72
2023/06/15 10:40:52;;;;;;;7.72;3.30;;;;;;;31.38;36.00;102154.63;5073185;28;20115;-73
2023/06/15 10:43:19;;;;;;;13.68;3.33;;;;;;;30.20;39.75;102153.00;5073500;28;20036;-72
2023/06/15 10:45:44;;;;;;;5.72;3.10;;;;;;;29.33;43.61;102152.50;5091539;28;20060;-74
2023/06/15 10:48:20;;;;;;;8.27;3.22;;;;;;;28.88;44.24;102152.91;5091110;28;20480;-73
2023/06/15 10:50:48;;;;;;;5.90;3.30;;;;;;;29.43;44.72;102145.66;5095164;28;20444;-72
2023/06/15 10:53:27;;;;;;;9.70;3.50;;;;;;;30.05;42.30;102148.00;5094819;28;20115;-72
2023/06/15 10:55:58;;;;;;;8.88;3.15;;;;;;;30.72;42.84;102142.09;5094997;28;20107;-73
2023/06/15 10:58:26;;;;;;;14.95;3.30;;;;;;;31.81;39.51;102143.03;5094914;28;20032;-73
2023/06/15 11:01:16;;;;;;;10.82;3.28;;;;;;;33.32;38.53;102147.47;5094716;28;20082;-73
2023/06/15 11:03:43;;;;;;;18.02;3.65;;;;;;;33.98;35.20;102140.81;5077490;28;20031;-74
2023/06/15 11:06:21;;;;;;;7.25;3.08;;;;;;;33.96;33.63;102148.53;5094205;28;20466;-73
2023/06/15 11:08:50;;;;;;;6.95;3.13;;;;;;;33.52;34.85;102137.69;5094968;28;20039;-73
2023/06/15 11:11:19;;;;;;;8.20;2.97;;;;;;;32.44;36.66;102145.59;5095668;28;20066;-72
2023/06/15 11:14:00;;;;;;;8.75;3.05;;;;;;;31.86;37.46;102147.75;5094687;28;20120;-72
2023/06/15 11:16:46;;;;;;;5.72;3.00;;;;;;;31.94;37.50;102155.56;5094551;28;20531;-72
2023/06/15 11:19:14;;;;;;;10.27;3.20;;;;;;;32.22;35.62;102156.56;5092982;28;20040;-72